sensor_id;sensor_type;location;lat;lon;timestamp;P1;durP1;ratioP1;P2;durP2;ratioP2
76617;SDS011;65509;42.816;74.648;2022-12-18T00:03:50;126.55;;;51.42;;
76617;SDS011;65509;42.816;74.648;2022-12-18T00:06:16;126.95;;;52.35;;
76617;SDS011;65509;42.816;74.648;2022-12-18T00:08:42;109.57;;;44.72;;
76617;SDS011;65509;42.816;74.648;2022-12-18T00:11:08;95.25;;;38.58;;
76617;SDS011;65509;42.816;74.648;2022-12-18T00:13:34;85.03;;;34.20;;
76617;SDS011;65509;42.816;74.648;2022-12-18T00:16:03;83.47;;;32.25;;
76617;SDS011;65509;42.816;74.648;2022-12-18T00:18:29;75.57;;;29.38;;
76617;SDS011;65509;42.816;74.648;2022-12-18T00:20:57;75.65;;;28.10;;
76617;SDS011;65509;42.816;74.648;2022-12-18T00:23:23;66.97;;;27.15;;
76617;SDS011;65509;42.816;74.648;2022-12-18T00:25:48;69.53;;;27.77;;
76617;SDS011;65509;42.816;74.648;2022-12-18T00:28:14;57.08;;;23.02;;
76617;SDS011;65509;42.816;74.648;2022-12-18T00:30:39;45.70;;;18.48;;
76617;SDS011;65509;42.816;74.648;2022-12-18T00:33:04;52.83;;;21.00;;
76617;SDS011;65509;42.816;74.648;2022-12-18T00:35:31;45.65;;;19.88;;
76617;SDS011;65509;42.816;74.648;2022-12-18T00:37:56;51.95;;;18.55;;
76617;SDS011;65509;42.816;74.648;2022-12-18T00:40:21;41.78;;;18.45;;
76617;SDS011;65509;42.816;74.648;2022-12-18T00:42:47;51.05;;;20.08;;
76617;SDS011;65509;42.816;74.648;2022-12-18T00:47:50;57.25;;;21.33;;
76617;SDS011;65509;42.816;74.648;2022-12-18T00:50:15;54.63;;;21.85;;
76617;SDS011;65509;42.816;74.648;2022-12-18T00:52:41;64.78;;;24.35;;
76617;SDS011;65509;42.816;74.648;2022-12-18T00:55:06;77.00;;;26.45;;
76617;SDS011;65509;42.816;74.648;2022-12-18T00:57:32;91.40;;;32.83;;
76617;SDS011;65509;42.816;74.648;2022-12-18T00:59:57;79.90;;;27.38;;
76617;SDS011;65509;42.816;74.648;2022-12-18T01:02:23;78.75;;;27.83;;
76617;SDS011;65509;42.816;74.648;2022-12-18T01:04:48;70.45;;;25.38;;
76617;SDS011;65509;42.816;74.648;2022-12-18T01:07:13;73.35;;;28.00;;
76617;SDS011;65509;42.816;74.648;2022-12-18T01:09:39;73.75;;;27.75;;
76617;SDS011;65509;42.816;74.648;2022-12-18T01:12:04;89.70;;;31.55;;
76617;SDS011;65509;42.816;74.648;2022-12-18T01:14:30;94.30;;;34.40;;
76617;SDS011;65509;42.816;74.648;2022-12-18T01:16:55;93.40;;;32.75;;
76617;SDS011;65509;42.816;74.648;2022-12-18T01:19:21;107.40;;;39.63;;
76617;SDS011;65509;42.816;74.648;2022-12-18T01:21:46;116.68;;;42.95;;
76617;SDS011;65509;42.816;74.648;2022-12-18T01:24:12;95.50;;;36.47;;
76617;SDS011;65509;42.816;74.648;2022-12-18T01:26:37;93.90;;;35.55;;
76617;SDS011;65509;42.816;74.648;2022-12-18T01:29:03;113.90;;;38.75;;
76617;SDS011;65509;42.816;74.648;2022-12-18T01:31:30;100.15;;;34.85;;
76617;SDS011;65509;42.816;74.648;2022-12-18T01:33:56;124.93;;;42.85;;
76617;SDS011;65509;42.816;74.648;2022-12-18T01:36:22;139.32;;;43.40;;
76617;SDS011;65509;42.816;74.648;2022-12-18T01:38:48;169.43;;;50.42;;
76617;SDS011;65509;42.816;74.648;2022-12-18T01:41:18;112.60;;;41.30;;
76617;SDS011;65509;42.816;74.648;2022-12-18T01:43:53;111.43;;;41.85;;
76617;SDS011;65509;42.816;74.648;2022-12-18T01:46:20;122.25;;;48.20;;
76617;SDS011;65509;42.816;74.648;2022-12-18T01:48:49;123.25;;;44.72;;
76617;SDS011;65509;42.816;74.648;2022-12-18T01:51:15;117.03;;;41.33;;
76617;SDS011;65509;42.816;74.648;2022-12-18T01:53:41;137.70;;;49.28;;
76617;SDS011;65509;42.816;74.648;2022-12-18T01:56:07;133.95;;;46.75;;
76617;SDS011;65509;42.816;74.648;2022-12-18T02:01:02;106.72;;;42.97;;
76617;SDS011;65509;42.816;74.648;2022-12-18T02:03:27;97.28;;;43.03;;
76617;SDS011;65509;42.816;74.648;2022-12-18T02:08:22;101.75;;;42.30;;
76617;SDS011;65509;42.816;74.648;2022-12-18T02:10:57;111.53;;;46.40;;
76617;SDS011;65509;42.816;74.648;2022-12-18T02:13:29;124.80;;;53.53;;
76617;SDS011;65509;42.816;74.648;2022-12-18T02:16:06;169.73;;;66.07;;
76617;SDS011;65509;42.816;74.648;2022-12-18T02:18:35;152.70;;;61.75;;
76617;SDS011;65509;42.816;74.648;2022-12-18T02:26:06;128.20;;;52.83;;
76617;SDS011;65509;42.816;74.648;2022-12-18T02:30:58;126.93;;;53.70;;
76617;SDS011;65509;42.816;74.648;2022-12-18T02:33:25;108.32;;;47.47;;
76617;SDS011;65509;42.816;74.648;2022-12-18T02:35:51;113.88;;;46.10;;
76617;SDS011;65509;42.816;74.648;2022-12-18T02:38:18;105.68;;;42.25;;
76617;SDS011;65509;42.816;74.648;2022-12-18T02:40:44;94.15;;;39.65;;
76617;SDS011;65509;42.816;74.648;2022-12-18T02:43:11;110.15;;;41.83;;
76617;SDS011;65509;42.816;74.648;2022-12-18T02:45:56;100.65;;;41.25;;
76617;SDS011;65509;42.816;74.648;2022-12-18T02:48:23;105.75;;;43.55;;
76617;SDS011;65509;42.816;74.648;2022-12-18T02:50:52;105.00;;;42.88;;
76617;SDS011;65509;42.816;74.648;2022-12-18T02:53:27;95.93;;;39.97;;
76617;SDS011;65509;42.816;74.648;2022-12-18T03:01:18;90.47;;;37.38;;
76617;SDS011;65509;42.816;74.648;2022-12-18T03:03:49;87.05;;;36.03;;
76617;SDS011;65509;42.816;74.648;2022-12-18T03:06:21;88.57;;;37.75;;
76617;SDS011;65509;42.816;74.648;2022-12-18T03:08:49;83.65;;;35.67;;
76617;SDS011;65509;42.816;74.648;2022-12-18T03:11:16;81.07;;;33.90;;
76617;SDS011;65509;42.816;74.648;2022-12-18T03:14:01;97.32;;;39.50;;
76617;SDS011;65509;42.816;74.648;2022-12-18T03:16:28;91.30;;;36.50;;
76617;SDS011;65509;42.816;74.648;2022-12-18T03:18:58;90.85;;;35.90;;
76617;SDS011;65509;42.816;74.648;2022-12-18T03:21:29;85.85;;;35.25;;
76617;SDS011;65509;42.816;74.648;2022-12-18T03:23:57;88.35;;;36.13;;
76617;SDS011;65509;42.816;74.648;2022-12-18T03:26:24;81.20;;;33.25;;
76617;SDS011;65509;42.816;74.648;2022-12-18T03:28:51;96.32;;;38.80;;
76617;SDS011;65509;42.816;74.648;2022-12-18T03:31:18;84.55;;;36.78;;
76617;SDS011;65509;42.816;74.648;2022-12-18T03:33:55;88.20;;;35.80;;
76617;SDS011;65509;42.816;74.648;2022-12-18T03:36:21;159.05;;;48.40;;
76617;SDS011;65509;42.816;74.648;2022-12-18T03:38:47;114.88;;;43.38;;
76617;SDS011;65509;42.816;74.648;2022-12-18T03:49:08;81.57;;;35.55;;
76617;SDS011;65509;42.816;74.648;2022-12-18T03:54:03;92.32;;;40.38;;
76617;SDS011;65509;42.816;74.648;2022-12-18T03:56:33;94.72;;;40.85;;
76617;SDS011;65509;42.816;74.648;2022-12-18T03:59:00;102.75;;;43.90;;
76617;SDS011;65509;42.816;74.648;2022-12-18T04:01:34;113.13;;;50.55;;
76617;SDS011;65509;42.816;74.648;2022-12-18T04:04:01;97.87;;;40.97;;
76617;SDS011;65509;42.816;74.648;2022-12-18T04:06:28;87.55;;;41.33;;
76617;SDS011;65509;42.816;74.648;2022-12-18T04:08:54;81.38;;;36.63;;
76617;SDS011;65509;42.816;74.648;2022-12-18T04:11:19;81.00;;;34.50;;
76617;SDS011;65509;42.816;74.648;2022-12-18T04:13:45;85.32;;;35.88;;
76617;SDS011;65509;42.816;74.648;2022-12-18T04:16:10;84.57;;;35.15;;
76617;SDS011;65509;42.816;74.648;2022-12-18T04:18:35;82.45;;;35.83;;
76617;SDS011;65509;42.816;74.648;2022-12-18T04:21:01;74.88;;;33.08;;
76617;SDS011;65509;42.816;74.648;2022-12-18T04:23:26;74.60;;;32.97;;
76617;SDS011;65509;42.816;74.648;2022-12-18T04:25:53;70.90;;;31.80;;
76617;SDS011;65509;42.816;74.648;2022-12-18T04:28:18;57.90;;;27.00;;
76617;SDS011;65509;42.816;74.648;2022-12-18T04:30:44;60.03;;;26.95;;
76617;SDS011;65509;42.816;74.648;2022-12-18T04:33:13;71.53;;;32.15;;
76617;SDS011;65509;42.816;74.648;2022-12-18T04:35:41;65.65;;;30.48;;
76617;SDS011;65509;42.816;74.648;2022-12-18T04:38:07;66.40;;;31.75;;
76617;SDS011;65509;42.816;74.648;2022-12-18T04:40:33;65.53;;;30.67;;
76617;SDS011;65509;42.816;74.648;2022-12-18T04:43:02;77.90;;;34.45;;
76617;SDS011;65509;42.816;74.648;2022-12-18T04:45:27;83.35;;;36.15;;
76617;SDS011;65509;42.816;74.648;2022-12-18T04:47:53;64.75;;;33.13;;
76617;SDS011;65509;42.816;74.648;2022-12-18T04:50:18;67.15;;;33.40;;
76617;SDS011;65509;42.816;74.648;2022-12-18T04:52:43;70.50;;;34.65;;
76617;SDS011;65509;42.816;74.648;2022-12-18T04:55:09;78.65;;;36.40;;
76617;SDS011;65509;42.816;74.648;2022-12-18T04:57:34;70.60;;;34.83;;
76617;SDS011;65509;42.816;74.648;2022-12-18T05:00:00;66.05;;;32.85;;
76617;SDS011;65509;42.816;74.648;2022-12-18T05:02:25;64.43;;;30.45;;
76617;SDS011;65509;42.816;74.648;2022-12-18T05:04:51;78.20;;;35.10;;
76617;SDS011;65509;42.816;74.648;2022-12-18T05:07:16;80.38;;;38.03;;
76617;SDS011;65509;42.816;74.648;2022-12-18T05:09:42;83.63;;;38.97;;
76617;SDS011;65509;42.816;74.648;2022-12-18T05:12:07;76.70;;;36.00;;
76617;SDS011;65509;42.816;74.648;2022-12-18T05:14:33;82.93;;;37.15;;
76617;SDS011;65509;42.816;74.648;2022-12-18T05:16:58;87.13;;;42.85;;
76617;SDS011;65509;42.816;74.648;2022-12-18T05:19:23;79.53;;;39.15;;
76617;SDS011;65509;42.816;74.648;2022-12-18T05:21:49;91.07;;;43.35;;
76617;SDS011;65509;42.816;74.648;2022-12-18T05:24:14;99.15;;;43.40;;
76617;SDS011;65509;42.816;74.648;2022-12-18T05:26:39;94.55;;;44.17;;
76617;SDS011;65509;42.816;74.648;2022-12-18T05:29:05;106.82;;;49.25;;
76617;SDS011;65509;42.816;74.648;2022-12-18T05:31:33;88.20;;;43.15;;
76617;SDS011;65509;42.816;74.648;2022-12-18T05:33:58;88.00;;;42.92;;
76617;SDS011;65509;42.816;74.648;2022-12-18T05:36:27;87.45;;;44.30;;
76617;SDS011;65509;42.816;74.648;2022-12-18T05:38:52;85.97;;;44.33;;
76617;SDS011;65509;42.816;74.648;2022-12-18T05:41:17;91.15;;;45.45;;
76617;SDS011;65509;42.816;74.648;2022-12-18T05:43:43;83.93;;;38.95;;
76617;SDS011;65509;42.816;74.648;2022-12-18T05:46:12;73.97;;;35.17;;
76617;SDS011;65509;42.816;74.648;2022-12-18T05:48:38;63.67;;;31.35;;
76617;SDS011;65509;42.816;74.648;2022-12-18T05:51:07;90.07;;;40.22;;
76617;SDS011;65509;42.816;74.648;2022-12-18T05:53:32;86.45;;;42.25;;
76617;SDS011;65509;42.816;74.648;2022-12-18T05:56:00;82.43;;;39.83;;
76617;SDS011;65509;42.816;74.648;2022-12-18T05:58:25;83.57;;;42.33;;
76617;SDS011;65509;42.816;74.648;2022-12-18T06:00:50;86.38;;;40.70;;
76617;SDS011;65509;42.816;74.648;2022-12-18T06:03:16;87.00;;;43.20;;
76617;SDS011;65509;42.816;74.648;2022-12-18T06:05:42;94.03;;;46.40;;
76617;SDS011;65509;42.816;74.648;2022-12-18T06:08:08;97.13;;;46.20;;
76617;SDS011;65509;42.816;74.648;2022-12-18T06:10:34;113.45;;;52.45;;
76617;SDS011;65509;42.816;74.648;2022-12-18T06:13:00;106.32;;;52.58;;
76617;SDS011;65509;42.816;74.648;2022-12-18T06:15:25;106.03;;;52.03;;
76617;SDS011;65509;42.816;74.648;2022-12-18T06:17:50;111.22;;;52.95;;
76617;SDS011;65509;42.816;74.648;2022-12-18T06:20:16;115.80;;;52.60;;
76617;SDS011;65509;42.816;74.648;2022-12-18T06:22:41;101.82;;;48.65;;
76617;SDS011;65509;42.816;74.648;2022-12-18T06:25:07;106.80;;;49.95;;
76617;SDS011;65509;42.816;74.648;2022-12-18T06:27:35;117.22;;;54.80;;
76617;SDS011;65509;42.816;74.648;2022-12-18T06:30:01;95.97;;;47.45;;
76617;SDS011;65509;42.816;74.648;2022-12-18T06:32:26;99.35;;;48.67;;
76617;SDS011;65509;42.816;74.648;2022-12-18T06:34:52;97.72;;;48.38;;
76617;SDS011;65509;42.816;74.648;2022-12-18T06:37:18;97.97;;;47.50;;
76617;SDS011;65509;42.816;74.648;2022-12-18T06:39:44;106.05;;;51.17;;
76617;SDS011;65509;42.816;74.648;2022-12-18T06:42:09;105.28;;;50.00;;
76617;SDS011;65509;42.816;74.648;2022-12-18T06:44:35;97.40;;;49.67;;
76617;SDS011;65509;42.816;74.648;2022-12-18T06:47:00;97.15;;;45.63;;
76617;SDS011;65509;42.816;74.648;2022-12-18T06:49:25;110.07;;;47.88;;
76617;SDS011;65509;42.816;74.648;2022-12-18T06:51:55;97.47;;;43.90;;
76617;SDS011;65509;42.816;74.648;2022-12-18T06:54:21;86.10;;;39.60;;
76617;SDS011;65509;42.816;74.648;2022-12-18T06:56:46;74.05;;;36.55;;
76617;SDS011;65509;42.816;74.648;2022-12-18T06:59:12;122.55;;;50.45;;
76617;SDS011;65509;42.816;74.648;2022-12-18T07:01:38;88.07;;;41.25;;
76617;SDS011;65509;42.816;74.648;2022-12-18T07:04:03;70.07;;;35.80;;
76617;SDS011;65509;42.816;74.648;2022-12-18T07:06:29;100.72;;;41.20;;
76617;SDS011;65509;42.816;74.648;2022-12-18T07:08:54;74.15;;;37.63;;
76617;SDS011;65509;42.816;74.648;2022-12-18T07:11:20;75.70;;;37.72;;
76617;SDS011;65509;42.816;74.648;2022-12-18T07:13:45;90.95;;;45.15;;
76617;SDS011;65509;42.816;74.648;2022-12-18T07:16:11;93.03;;;41.38;;
76617;SDS011;65509;42.816;74.648;2022-12-18T07:18:37;90.20;;;41.97;;
76617;SDS011;65509;42.816;74.648;2022-12-18T07:21:03;88.43;;;42.28;;
76617;SDS011;65509;42.816;74.648;2022-12-18T07:23:29;97.03;;;45.38;;
76617;SDS011;65509;42.816;74.648;2022-12-18T07:25:55;86.68;;;42.45;;
76617;SDS011;65509;42.816;74.648;2022-12-18T07:28:20;96.82;;;44.28;;
76617;SDS011;65509;42.816;74.648;2022-12-18T07:30:46;94.80;;;46.67;;
76617;SDS011;65509;42.816;74.648;2022-12-18T07:33:11;107.13;;;47.63;;
76617;SDS011;65509;42.816;74.648;2022-12-18T07:35:36;93.85;;;46.65;;
76617;SDS011;65509;42.816;74.648;2022-12-18T07:38:02;81.45;;;39.17;;
76617;SDS011;65509;42.816;74.648;2022-12-18T07:40:27;95.00;;;42.00;;
76617;SDS011;65509;42.816;74.648;2022-12-18T07:42:53;85.13;;;40.13;;
76617;SDS011;65509;42.816;74.648;2022-12-18T07:45:18;77.90;;;36.58;;
76617;SDS011;65509;42.816;74.648;2022-12-18T07:47:44;73.30;;;36.45;;
76617;SDS011;65509;42.816;74.648;2022-12-18T07:50:09;76.15;;;35.33;;
76617;SDS011;65509;42.816;74.648;2022-12-18T07:52:35;75.00;;;36.05;;
76617;SDS011;65509;42.816;74.648;2022-12-18T07:55:00;75.53;;;34.67;;
76617;SDS011;65509;42.816;74.648;2022-12-18T07:57:26;65.80;;;31.42;;
76617;SDS011;65509;42.816;74.648;2022-12-18T07:59:51;66.03;;;32.33;;
76617;SDS011;65509;42.816;74.648;2022-12-18T08:05:18;67.57;;;32.25;;
76617;SDS011;65509;42.816;74.648;2022-12-18T08:07:43;81.28;;;35.50;;
76617;SDS011;65509;42.816;74.648;2022-12-18T08:10:09;71.35;;;31.48;;
76617;SDS011;65509;42.816;74.648;2022-12-18T08:12:36;62.45;;;30.58;;
76617;SDS011;65509;42.816;74.648;2022-12-18T08:15:02;65.05;;;33.40;;
76617;SDS011;65509;42.816;74.648;2022-12-18T08:17:31;69.15;;;33.72;;
76617;SDS011;65509;42.816;74.648;2022-12-18T08:19:56;74.05;;;34.65;;
76617;SDS011;65509;42.816;74.648;2022-12-18T08:22:23;83.18;;;39.97;;
76617;SDS011;65509;42.816;74.648;2022-12-18T08:24:49;80.00;;;38.28;;
76617;SDS011;65509;42.816;74.648;2022-12-18T08:27:14;93.25;;;41.50;;
76617;SDS011;65509;42.816;74.648;2022-12-18T08:29:40;85.00;;;39.78;;
76617;SDS011;65509;42.816;74.648;2022-12-18T08:32:05;119.63;;;55.97;;
76617;SDS011;65509;42.816;74.648;2022-12-18T08:34:31;169.88;;;78.25;;
76617;SDS011;65509;42.816;74.648;2022-12-18T08:36:56;201.95;;;94.72;;
76617;SDS011;65509;42.816;74.648;2022-12-18T08:39:21;217.15;;;97.20;;
76617;SDS011;65509;42.816;74.648;2022-12-18T08:41:47;198.57;;;94.63;;
76617;SDS011;65509;42.816;74.648;2022-12-18T08:44:32;200.98;;;92.15;;
76617;SDS011;65509;42.816;74.648;2022-12-18T08:47:04;222.15;;;98.53;;
76617;SDS011;65509;42.816;74.648;2022-12-18T08:49:32;203.98;;;97.03;;
76617;SDS011;65509;42.816;74.648;2022-12-18T08:51:58;203.27;;;93.97;;
76617;SDS011;65509;42.816;74.648;2022-12-18T08:54:24;228.80;;;102.38;;
76617;SDS011;65509;42.816;74.648;2022-12-18T08:56:50;210.20;;;94.32;;
76617;SDS011;65509;42.816;74.648;2022-12-18T08:59:16;226.20;;;97.18;;
76617;SDS011;65509;42.816;74.648;2022-12-18T09:01:42;248.65;;;103.97;;
76617;SDS011;65509;42.816;74.648;2022-12-18T09:04:08;270.20;;;109.35;;
76617;SDS011;65509;42.816;74.648;2022-12-18T09:06:34;264.73;;;117.28;;
76617;SDS011;65509;42.816;74.648;2022-12-18T09:08:59;268.58;;;115.07;;
76617;SDS011;65509;42.816;74.648;2022-12-18T09:11:26;272.92;;;114.68;;
76617;SDS011;65509;42.816;74.648;2022-12-18T09:13:52;255.15;;;112.60;;
76617;SDS011;65509;42.816;74.648;2022-12-18T09:16:18;251.48;;;109.10;;
76617;SDS011;65509;42.816;74.648;2022-12-18T09:18:44;241.15;;;109.22;;
76617;SDS011;65509;42.816;74.648;2022-12-18T09:21:14;253.90;;;108.32;;
76617;SDS011;65509;42.816;74.648;2022-12-18T09:23:40;250.15;;;109.13;;
76617;SDS011;65509;42.816;74.648;2022-12-18T09:26:05;251.25;;;110.90;;
76617;SDS011;65509;42.816;74.648;2022-12-18T09:28:31;284.40;;;116.40;;
76617;SDS011;65509;42.816;74.648;2022-12-18T09:30:56;291.98;;;120.60;;
76617;SDS011;65509;42.816;74.648;2022-12-18T09:33:21;267.27;;;115.68;;
76617;SDS011;65509;42.816;74.648;2022-12-18T09:35:47;264.17;;;111.43;;
76617;SDS011;65509;42.816;74.648;2022-12-18T09:38:17;255.65;;;102.13;;
76617;SDS011;65509;42.816;74.648;2022-12-18T09:40:47;282.48;;;109.50;;
76617;SDS011;65509;42.816;74.648;2022-12-18T09:43:24;235.25;;;100.40;;
76617;SDS011;65509;42.816;74.648;2022-12-18T09:45:57;240.68;;;104.20;;
76617;SDS011;65509;42.816;74.648;2022-12-18T09:48:27;263.27;;;110.78;;
76617;SDS011;65509;42.816;74.648;2022-12-18T09:50:55;263.63;;;106.45;;
76617;SDS011;65509;42.816;74.648;2022-12-18T09:53:26;229.05;;;98.45;;
76617;SDS011;65509;42.816;74.648;2022-12-18T09:55:52;219.57;;;99.03;;
76617;SDS011;65509;42.816;74.648;2022-12-18T10:03:32;254.20;;;103.22;;
76617;SDS011;65509;42.816;74.648;2022-12-18T10:06:15;258.80;;;106.97;;
76617;SDS011;65509;42.816;74.648;2022-12-18T10:08:45;262.65;;;113.43;;
76617;SDS011;65509;42.816;74.648;2022-12-18T10:14:03;260.63;;;116.22;;
76617;SDS011;65509;42.816;74.648;2022-12-18T10:16:53;294.15;;;119.13;;
76617;SDS011;65509;42.816;74.648;2022-12-18T10:19:37;309.23;;;123.22;;
76617;SDS011;65509;42.816;74.648;2022-12-18T10:22:36;276.13;;;122.53;;
76617;SDS011;65509;42.816;74.648;2022-12-18T10:25:15;275.50;;;116.60;;
76617;SDS011;65509;42.816;74.648;2022-12-18T10:27:42;280.58;;;119.22;;
76617;SDS011;65509;42.816;74.648;2022-12-18T10:30:14;312.73;;;131.40;;
76617;SDS011;65509;42.816;74.648;2022-12-18T10:32:43;316.65;;;132.32;;
76617;SDS011;65509;42.816;74.648;2022-12-18T10:35:14;340.70;;;136.18;;
76617;SDS011;65509;42.816;74.648;2022-12-18T10:43:21;367.17;;;143.05;;
76617;SDS011;65509;42.816;74.648;2022-12-18T10:45:58;386.42;;;143.75;;
76617;SDS011;65509;42.816;74.648;2022-12-18T10:48:25;410.58;;;153.52;;
76617;SDS011;65509;42.816;74.648;2022-12-18T10:50:50;391.73;;;149.15;;
76617;SDS011;65509;42.816;74.648;2022-12-18T10:53:21;405.20;;;150.65;;
76617;SDS011;65509;42.816;74.648;2022-12-18T10:55:47;374.48;;;145.32;;
76617;SDS011;65509;42.816;74.648;2022-12-18T10:58:30;386.02;;;151.93;;
76617;SDS011;65509;42.816;74.648;2022-12-18T11:03:46;368.38;;;151.88;;
76617;SDS011;65509;42.816;74.648;2022-12-18T11:06:26;367.92;;;148.13;;
76617;SDS011;65509;42.816;74.648;2022-12-18T11:08:58;384.50;;;157.88;;
76617;SDS011;65509;42.816;74.648;2022-12-18T11:11:27;439.73;;;179.15;;
76617;SDS011;65509;42.816;74.648;2022-12-18T11:14:41;478.77;;;199.10;;
76617;SDS011;65509;42.816;74.648;2022-12-18T11:16:45;359.10;;;151.77;;
76617;SDS011;65509;42.816;74.648;2022-12-18T11:21:40;399.83;;;187.38;;
76617;SDS011;65509;42.816;74.648;2022-12-18T11:24:08;388.33;;;168.40;;
76617;SDS011;65509;42.816;74.648;2022-12-18T11:26:43;374.98;;;162.95;;
76617;SDS011;65509;42.816;74.648;2022-12-18T11:29:18;356.50;;;150.52;;
76617;SDS011;65509;42.816;74.648;2022-12-18T11:31:43;364.77;;;152.00;;
76617;SDS011;65509;42.816;74.648;2022-12-18T11:36:36;412.25;;;187.75;;
76617;SDS011;65509;42.816;74.648;2022-12-18T11:39:12;385.30;;;174.55;;
76617;SDS011;65509;42.816;74.648;2022-12-18T11:41:54;378.02;;;163.02;;
76617;SDS011;65509;42.816;74.648;2022-12-18T11:44:47;393.80;;;161.00;;
76617;SDS011;65509;42.816;74.648;2022-12-18T11:52:45;383.23;;;158.00;;
76617;SDS011;65509;42.816;74.648;2022-12-18T11:58:03;388.45;;;161.30;;
76617;SDS011;65509;42.816;74.648;2022-12-18T12:00:33;392.17;;;160.07;;
76617;SDS011;65509;42.816;74.648;2022-12-18T12:13:20;378.23;;;159.82;;
76617;SDS011;65509;42.816;74.648;2022-12-18T12:16:31;378.08;;;159.73;;
76617;SDS011;65509;42.816;74.648;2022-12-18T12:26:01;337.98;;;147.60;;
76617;SDS011;65509;42.816;74.648;2022-12-18T12:31:24;339.83;;;145.07;;
76617;SDS011;65509;42.816;74.648;2022-12-18T12:34:09;302.30;;;130.20;;
76617;SDS011;65509;42.816;74.648;2022-12-18T12:39:39;348.95;;;134.50;;
76617;SDS011;65509;42.816;74.648;2022-12-18T12:42:06;381.80;;;144.73;;
76617;SDS011;65509;42.816;74.648;2022-12-18T12:44:55;459.58;;;191.48;;
76617;SDS011;65509;42.816;74.648;2022-12-18T12:47:27;482.73;;;213.50;;
76617;SDS011;65509;42.816;74.648;2022-12-18T12:49:53;423.50;;;175.05;;
76617;SDS011;65509;42.816;74.648;2022-12-18T12:54:48;441.17;;;194.95;;
76617;SDS011;65509;42.816;74.648;2022-12-18T12:57:19;472.17;;;211.48;;
76617;SDS011;65509;42.816;74.648;2022-12-18T13:03:01;468.48;;;218.48;;
76617;SDS011;65509;42.816;74.648;2022-12-18T13:08:26;476.08;;;225.63;;
76617;SDS011;65509;42.816;74.648;2022-12-18T13:10:53;475.30;;;223.98;;
76617;SDS011;65509;42.816;74.648;2022-12-18T13:13:54;460.92;;;215.60;;
76617;SDS011;65509;42.816;74.648;2022-12-18T13:16:22;465.83;;;215.27;;
76617;SDS011;65509;42.816;74.648;2022-12-18T13:18:49;451.65;;;206.95;;
76617;SDS011;65509;42.816;74.648;2022-12-18T13:21:36;461.50;;;217.05;;
76617;SDS011;65509;42.816;74.648;2022-12-18T13:24:22;454.48;;;208.13;;
76617;SDS011;65509;42.816;74.648;2022-12-18T13:26:48;480.40;;;224.90;;
76617;SDS011;65509;42.816;74.648;2022-12-18T13:29:15;453.10;;;211.70;;
76617;SDS011;65509;42.816;74.648;2022-12-18T13:31:59;455.33;;;208.23;;
76617;SDS011;65509;42.816;74.648;2022-12-18T13:34:26;424.17;;;182.43;;
76617;SDS011;65509;42.816;74.648;2022-12-18T13:36:52;407.73;;;167.65;;
76617;SDS011;65509;42.816;74.648;2022-12-18T13:41:47;387.58;;;162.80;;
76617;SDS011;65509;42.816;74.648;2022-12-18T13:44:17;391.65;;;161.40;;
76617;SDS011;65509;42.816;74.648;2022-12-18T13:51:39;333.90;;;133.60;;
76617;SDS011;65509;42.816;74.648;2022-12-18T13:54:18;300.15;;;125.07;;
76617;SDS011;65509;42.816;74.648;2022-12-18T13:56:46;315.48;;;130.65;;
76617;SDS011;65509;42.816;74.648;2022-12-18T13:59:12;278.23;;;112.93;;
76617;SDS011;65509;42.816;74.648;2022-12-18T14:01:57;242.93;;;101.00;;
76617;SDS011;65509;42.816;74.648;2022-12-18T14:04:24;237.90;;;95.30;;
76617;SDS011;65509;42.816;74.648;2022-12-18T14:07:24;250.80;;;100.97;;
76617;SDS011;65509;42.816;74.648;2022-12-18T14:09:43;264.73;;;106.45;;
76617;SDS011;65509;42.816;74.648;2022-12-18T14:12:15;260.30;;;99.57;;
76617;SDS011;65509;42.816;74.648;2022-12-18T14:15:01;264.77;;;114.45;;
76617;SDS011;65509;42.816;74.648;2022-12-18T14:17:26;255.15;;;112.03;;
76617;SDS011;65509;42.816;74.648;2022-12-18T14:19:55;295.98;;;121.57;;
76617;SDS011;65509;42.816;74.648;2022-12-18T14:22:22;271.58;;;115.38;;
76617;SDS011;65509;42.816;74.648;2022-12-18T14:25:10;270.02;;;112.38;;
76617;SDS011;65509;42.816;74.648;2022-12-18T14:27:41;266.92;;;110.90;;
76617;SDS011;65509;42.816;74.648;2022-12-18T14:33:05;297.63;;;119.18;;
76617;SDS011;65509;42.816;74.648;2022-12-18T14:35:43;273.65;;;113.13;;
76617;SDS011;65509;42.816;74.648;2022-12-18T14:38:47;284.42;;;116.85;;
76617;SDS011;65509;42.816;74.648;2022-12-18T14:41:14;278.63;;;115.88;;
76617;SDS011;65509;42.816;74.648;2022-12-18T14:43:40;276.58;;;113.97;;
76617;SDS011;65509;42.816;74.648;2022-12-18T14:46:25;261.08;;;108.65;;
76617;SDS011;65509;42.816;74.648;2022-12-18T14:49:02;235.88;;;96.55;;
76617;SDS011;65509;42.816;74.648;2022-12-18T14:51:29;232.93;;;94.38;;
76617;SDS011;65509;42.816;74.648;2022-12-18T14:54:05;230.10;;;97.22;;
76617;SDS011;65509;42.816;74.648;2022-12-18T14:56:36;275.25;;;111.07;;
76617;SDS011;65509;42.816;74.648;2022-12-18T14:59:06;264.55;;;108.97;;
76617;SDS011;65509;42.816;74.648;2022-12-18T15:01:44;275.90;;;113.15;;
76617;SDS011;65509;42.816;74.648;2022-12-18T15:10:16;260.05;;;104.63;;
76617;SDS011;65509;42.816;74.648;2022-12-18T15:15:49;307.23;;;114.00;;
76617;SDS011;65509;42.816;74.648;2022-12-18T15:18:16;248.15;;;100.03;;
76617;SDS011;65509;42.816;74.648;2022-12-18T15:20:50;309.67;;;122.07;;
76617;SDS011;65509;42.816;74.648;2022-12-18T15:23:17;335.42;;;129.00;;
76617;SDS011;65509;42.816;74.648;2022-12-18T15:26:04;384.23;;;141.77;;
76617;SDS011;65509;42.816;74.648;2022-12-18T15:33:35;366.17;;;139.23;;
76617;SDS011;65509;42.816;74.648;2022-12-18T15:36:07;352.65;;;132.05;;
76617;SDS011;65509;42.816;74.648;2022-12-18T15:38:33;338.23;;;125.00;;
76617;SDS011;65509;42.816;74.648;2022-12-18T15:41:04;307.23;;;122.13;;
76617;SDS011;65509;42.816;74.648;2022-12-18T15:43:32;330.63;;;123.78;;
76617;SDS011;65509;42.816;74.648;2022-12-18T15:46:02;297.58;;;113.38;;
76617;SDS011;65509;42.816;74.648;2022-12-18T15:48:31;358.25;;;133.02;;
76617;SDS011;65509;42.816;74.648;2022-12-18T15:50:57;295.27;;;111.63;;
76617;SDS011;65509;42.816;74.648;2022-12-18T15:53:30;257.17;;;99.97;;
76617;SDS011;65509;42.816;74.648;2022-12-18T15:55:57;321.33;;;113.80;;
76617;SDS011;65509;42.816;74.648;2022-12-18T15:58:42;412.50;;;132.85;;
76617;SDS011;65509;42.816;74.648;2022-12-18T16:01:08;355.67;;;124.47;;
76617;SDS011;65509;42.816;74.648;2022-12-18T16:03:34;427.38;;;149.02;;
76617;SDS011;65509;42.816;74.648;2022-12-18T16:05:59;389.10;;;140.52;;
76617;SDS011;65509;42.816;74.648;2022-12-18T16:08:32;433.90;;;160.65;;